Terminal Aerodrome Forecast
Issued by NWS Omaha/Valley, NE

Home | Current Version | Previous Version | Text Only | Print | Product List | Glossary On
Versions: 1 2 3 4 5 6 7 8 9 10 11 12 13 14 15 16 17 18 19 20 21 22 23 24 25 26 27 28
000
FTUS43 KOAX 282335
TAFLNK
TAF
KLNK 282335Z 2900/2924 15014G21KT P6SM SKC
     FM290500 18020G30KT P6SM BKN120
     FM291100 25014KT P6SM BKN050
     FM291500 32025G35KT P6SM SCT250
     FM292200 33015G25KT P6SM SKC=

USA.gov is the U.S. government's official web portal to all federal, state and local government web resources and services.